createdAt,value
2019-02-28T00:01:21.045Z,6.16
2019-02-28T00:03:50.567Z,5.97
2019-02-28T00:06:19.858Z,5.91
2019-02-28T00:08:51.025Z,5.91
2019-02-28T00:11:20.190Z,6.04
2019-02-28T00:13:52.338Z,6.09
2019-02-28T00:16:20.499Z,6.09
2019-02-28T00:18:50.603Z,5.73
2019-02-28T00:21:20.558Z,5.73
2019-02-28T00:23:49.857Z,5.85
2019-02-28T00:26:19.282Z,5.90
2019-02-28T00:28:48.602Z,5.79
2019-02-28T00:31:17.898Z,5.80
2019-02-28T00:33:47.214Z,5.78
2019-02-28T00:36:19.163Z,5.75
2019-02-28T00:38:47.842Z,5.74
2019-02-28T00:41:17.157Z,5.59
2019-02-28T00:43:46.635Z,5.60
2019-02-28T00:46:15.934Z,5.69
2019-02-28T00:48:45.241Z,5.80
2019-02-28T00:51:14.562Z,5.70
2019-02-28T00:53:43.856Z,5.68
2019-02-28T00:56:13.360Z,5.59
2019-02-28T00:58:42.766Z,5.52
2019-02-28T01:01:12.627Z,5.64
2019-02-28T01:03:42.099Z,5.47
2019-02-28T01:06:11.399Z,5.48
2019-02-28T01:08:40.752Z,5.45
2019-02-28T01:11:10.459Z,5.45
2019-02-28T01:13:41.077Z,5.48
2019-02-28T01:16:10.388Z,5.47
2019-02-28T01:18:40.091Z,5.39
2019-02-28T01:21:09.397Z,5.32
2019-02-28T01:23:39.048Z,5.53
2019-02-28T01:26:08.431Z,5.54
2019-02-28T01:28:37.840Z,5.59
2019-02-28T01:31:07.271Z,5.42
2019-02-28T01:33:36.558Z,5.39
2019-02-28T01:36:05.923Z,5.30
2019-02-28T01:38:35.220Z,5.21
2019-02-28T01:41:04.605Z,5.22
2019-02-28T01:43:33.881Z,5.17
2019-02-28T01:46:03.373Z,5.20
2019-02-28T01:48:32.653Z,5.30
2019-02-28T01:51:02.076Z,5.38
2019-02-28T01:53:31.383Z,5.34
2019-02-28T01:56:02.407Z,5.35
2019-02-28T01:58:33.569Z,5.39
2019-02-28T02:01:03.072Z,5.35
2019-02-28T02:03:32.357Z,5.39
2019-02-28T02:06:01.667Z,5.36
2019-02-28T02:08:31.039Z,5.37
2019-02-28T02:11:00.322Z,5.24
2019-02-28T02:13:29.628Z,5.18
2019-02-28T02:15:58.901Z,5.21
2019-02-28T02:18:28.206Z,5.28
2019-02-28T02:21:00.127Z,5.02
2019-02-28T02:23:28.610Z,5.11
2019-02-28T02:25:57.914Z,5.23
2019-02-28T02:28:27.888Z,5.25
2019-02-28T02:30:57.379Z,5.21
2019-02-28T02:33:26.714Z,5.12
2019-02-28T02:35:56.029Z,5.01
2019-02-28T02:38:25.343Z,4.83
2019-02-28T02:40:59.197Z,4.78
2019-02-28T02:43:25.639Z,4.82
2019-02-28T02:45:54.953Z,4.68
2019-02-28T02:48:24.232Z,4.66
2019-02-28T02:50:53.519Z,4.78
2019-02-28T02:53:22.835Z,4.72
2019-02-28T02:55:52.113Z,4.64
2019-02-28T02:58:26.718Z,4.54
2019-02-28T03:00:52.407Z,4.62
2019-02-28T03:03:21.714Z,4.55
2019-02-28T03:05:51.030Z,4.65
2019-02-28T03:08:20.319Z,4.58
2019-02-28T03:10:51.902Z,4.63
2019-02-28T03:13:21.004Z,4.58
2019-02-28T03:15:50.463Z,4.45
2019-02-28T03:18:20.837Z,4.54
2019-02-28T03:20:50.827Z,4.43
2019-02-28T03:23:20.136Z,4.35
2019-02-28T03:25:49.677Z,4.39
2019-02-28T03:28:19.084Z,4.52
2019-02-28T03:30:48.489Z,4.43
2019-02-28T03:33:27.433Z,4.58
2019-02-28T03:35:48.927Z,4.49
2019-02-28T03:38:18.336Z,4.50
2019-02-28T03:40:47.650Z,4.48
2019-02-28T03:43:17.015Z,4.49
2019-02-28T03:45:46.478Z,4.24
2019-02-28T03:48:15.794Z,4.25
2019-02-28T03:50:45.137Z,4.10
2019-02-28T03:53:19.245Z,4.24
2019-02-28T03:55:45.630Z,4.37
2019-02-28T03:58:15.055Z,4.26
2019-02-28T04:00:44.550Z,4.05
2019-02-28T04:03:13.838Z,4.00
2019-02-28T04:05:43.427Z,4.22
2019-02-28T04:08:12.746Z,4.20
2019-02-28T04:10:42.154Z,4.26
2019-02-28T04:13:11.515Z,4.21
2019-02-28T04:15:49.771Z,4.11
2019-02-28T04:18:11.922Z,4.06
2019-02-28T04:20:41.234Z,4.04
2019-02-28T04:23:10.578Z,3.93
2019-02-28T04:25:39.889Z,3.76
2019-02-28T04:28:09.185Z,3.80
2019-02-28T04:30:42.652Z,3.69
2019-02-28T04:33:09.693Z,3.71
2019-02-28T04:35:38.977Z,3.73
2019-02-28T04:38:08.287Z,3.90
2019-02-28T04:40:37.585Z,3.77
2019-02-28T04:43:07.251Z,3.78
2019-02-28T04:45:37.885Z,3.82
2019-02-28T04:48:07.197Z,3.79
2019-02-28T04:50:36.493Z,3.71
2019-02-28T04:53:05.801Z,3.69
2019-02-28T04:55:37.338Z,3.69
2019-02-28T04:58:06.107Z,3.81
2019-02-28T05:00:37.836Z,3.80
2019-02-28T05:03:06.482Z,3.68
2019-02-28T05:05:35.796Z,3.77
2019-02-28T05:08:05.976Z,3.81
2019-02-28T05:10:35.532Z,3.59
2019-02-28T05:13:04.829Z,3.63
2019-02-28T05:15:37.533Z,3.65
2019-02-28T05:18:05.136Z,3.54
2019-02-28T05:20:34.564Z,3.66
2019-02-28T05:23:04.084Z,3.59
2019-02-28T05:25:33.405Z,3.61
2019-02-28T05:28:02.691Z,3.62
2019-02-28T05:30:32.187Z,3.64
2019-02-28T05:33:01.897Z,3.54
2019-02-28T05:35:31.277Z,3.56
2019-02-28T05:38:00.616Z,3.61
2019-02-28T05:40:29.938Z,3.56
2019-02-28T05:42:59.314Z,3.65
2019-02-28T05:45:28.781Z,3.60
2019-02-28T05:47:58.109Z,3.86
2019-02-28T05:50:27.426Z,3.90
2019-02-28T05:52:56.716Z,4.41
2019-02-28T05:55:26.039Z,4.19
2019-02-28T05:57:55.372Z,3.96
2019-02-28T06:00:25.907Z,4.19
2019-02-28T06:02:58.092Z,3.99
2019-02-28T06:05:26.214Z,4.29
2019-02-28T06:07:55.543Z,4.31
2019-02-28T06:10:24.949Z,4.13
2019-02-28T06:12:54.421Z,3.91
2019-02-28T06:15:23.751Z,3.58
2019-02-28T06:17:55.017Z,3.56
2019-02-28T06:20:24.062Z,4.18
2019-02-28T06:22:53.396Z,4.38
2019-02-28T06:25:24.923Z,4.10
2019-02-28T06:27:53.781Z,4.14
2019-02-28T06:30:23.082Z,3.94
2019-02-28T06:32:57.871Z,3.72
2019-02-28T06:35:23.404Z,3.72
2019-02-28T06:37:52.702Z,3.41
2019-02-28T06:40:22.016Z,3.43
2019-02-28T06:42:51.310Z,3.21
2019-02-28T06:45:21.104Z,3.38
2019-02-28T06:47:50.434Z,3.40
2019-02-28T06:50:19.823Z,3.51
2019-02-28T06:52:49.129Z,3.54
2019-02-28T06:55:26.010Z,3.61
2019-02-28T06:57:58.907Z,3.68
2019-02-28T07:00:27.178Z,3.73
2019-02-28T07:02:56.570Z,4.01
2019-02-28T07:05:26.385Z,4.43
2019-02-28T07:07:55.739Z,4.51
2019-02-28T07:10:25.140Z,4.96
2019-02-28T07:12:54.646Z,5.16
2019-02-28T07:15:24.966Z,5.21
2019-02-28T07:17:54.421Z,5.26
2019-02-28T07:20:23.788Z,5.42
2019-02-28T07:22:55.524Z,5.41
2019-02-28T07:25:24.247Z,5.58
2019-02-28T07:27:53.658Z,5.58
2019-02-28T07:30:23.661Z,5.68
2019-02-28T07:32:53.105Z,5.86
2019-02-28T07:35:22.655Z,5.86
2019-02-28T07:37:54.387Z,5.95
2019-02-28T07:40:23.077Z,6.11
2019-02-28T07:42:52.477Z,6.11
2019-02-28T07:45:21.874Z,5.99
2019-02-28T07:47:52.701Z,5.99
2019-02-28T07:50:22.411Z,6.48
2019-02-28T07:52:53.206Z,6.61
2019-02-28T07:55:22.926Z,6.71
2019-02-28T07:57:56.171Z,6.73
2019-02-28T08:00:24.402Z,6.73
2019-02-28T08:02:54.248Z,7.16
2019-02-28T08:05:30.074Z,7.16
2019-02-28T08:07:57.007Z,7.12
2019-02-28T08:10:29.203Z,7.18
2019-02-28T08:12:58.798Z,7.44
2019-02-28T08:15:30.111Z,7.63
2019-02-28T08:17:59.770Z,8.11
2019-02-28T08:20:30.659Z,8.32
2019-02-28T08:23:00.242Z,8.32
2019-02-28T08:25:29.598Z,8.44
2019-02-28T08:28:00.884Z,8.44
2019-02-28T08:30:32.695Z,8.67
2019-02-28T08:33:02.211Z,8.67
2019-02-28T08:35:34.821Z,9.42
2019-02-28T08:38:03.163Z,9.94
2019-02-28T08:40:32.548Z,10.41
2019-02-28T08:43:02.475Z,11.44
2019-02-28T08:45:33.471Z,11.79
2019-02-28T08:48:03.125Z,11.52
2019-02-28T08:50:32.973Z,11.88
2019-02-28T08:53:04.526Z,12.70
2019-02-28T08:55:34.626Z,13.03
2019-02-28T08:58:06.473Z,14.17
2019-02-28T09:00:37.518Z,14.26
2019-02-28T09:03:06.483Z,14.45
2019-02-28T09:05:35.900Z,14.82
2019-02-28T09:08:05.620Z,14.76
2019-02-28T09:10:35.056Z,14.14
2019-02-28T09:13:07.742Z,14.42
2019-02-28T09:15:35.428Z,14.16
2019-02-28T09:18:07.207Z,14.06
2019-02-28T09:20:36.341Z,13.72
2019-02-28T09:23:06.385Z,13.93
2019-02-28T09:25:35.848Z,14.24
2019-02-28T09:28:06.657Z,15.31
2019-02-28T09:30:51.057Z,15.62
2019-02-28T09:33:23.256Z,14.88
2019-02-28T09:35:51.793Z,15.31
2019-02-28T09:38:21.177Z,15.55
2019-02-28T09:40:50.811Z,16.17
2019-02-28T09:43:23.952Z,16.61
2019-02-28T09:45:53.023Z,16.54
2019-02-28T09:48:22.529Z,16.73
2019-02-28T09:50:57.979Z,16.27
2019-02-28T09:53:24.042Z,16.35
2019-02-28T09:55:53.342Z,16.77
2019-02-28T09:58:22.949Z,17.21
2019-02-28T10:00:52.397Z,18.30
2019-02-28T10:03:21.989Z,19.22
2019-02-28T10:05:51.292Z,19.20
2019-02-28T10:08:21.826Z,19.17
2019-02-28T10:10:52.471Z,17.36
2019-02-28T10:13:22.645Z,17.91
2019-02-28T10:15:52.135Z,17.50
2019-02-28T10:18:21.463Z,16.76
2019-02-28T10:20:50.767Z,16.84
2019-02-28T10:23:21.492Z,17.04
2019-02-28T10:25:51.422Z,16.63
2019-02-28T10:28:20.730Z,16.22
2019-02-28T10:30:50.830Z,16.44
2019-02-28T10:33:20.181Z,16.39
2019-02-28T10:35:50.536Z,16.62
2019-02-28T10:38:20.099Z,16.72
2019-02-28T10:40:52.468Z,16.48
2019-02-28T10:43:20.630Z,16.42
2019-02-28T10:45:50.223Z,16.28
2019-02-28T10:48:19.642Z,16.56
2019-02-28T10:50:49.379Z,16.28
2019-02-28T10:53:18.851Z,15.97
2019-02-28T10:55:48.669Z,16.09
2019-02-28T10:58:23.915Z,15.72
2019-02-28T11:01:07.676Z,15.51
2019-02-28T11:03:43.606Z,15.17
2019-02-28T11:06:17.627Z,15.58
2019-02-28T11:08:50.945Z,15.60
2019-02-28T11:11:29.938Z,15.36
2019-02-28T11:14:09.816Z,14.88
2019-02-28T11:16:49.334Z,14.82
2019-02-28T11:19:27.808Z,15.27
2019-02-28T11:22:01.539Z,15.84
2019-02-28T11:24:32.144Z,17.44
2019-02-28T11:27:10.690Z,19.27
2019-02-28T11:29:50.435Z,21.45
2019-02-28T11:32:29.985Z,21.15
2019-02-28T11:35:07.962Z,21.97
2019-02-28T11:37:42.325Z,21.74
2019-02-28T11:40:20.009Z,20.49
2019-02-28T11:42:59.490Z,19.60
2019-02-28T11:45:34.563Z,18.13
2019-02-28T11:48:18.750Z,18.87
2019-02-28T11:50:56.253Z,19.38
2019-02-28T11:53:39.337Z,20.59
2019-02-28T11:56:09.634Z,21.37
2019-02-28T11:58:39.650Z,21.85
2019-02-28T12:01:18.178Z,22.67
2019-02-28T12:03:47.641Z,20.52
2019-02-28T12:06:17.743Z,20.29
2019-02-28T12:08:47.137Z,21.40
2019-02-28T12:11:16.845Z,20.40
2019-02-28T12:13:46.258Z,19.79
2019-02-28T12:16:16.248Z,18.60
2019-02-28T12:18:47.952Z,19.02
2019-02-28T12:21:17.734Z,20.05
2019-02-28T12:23:48.053Z,20.56
2019-02-28T12:26:21.540Z,19.23
2019-02-28T12:28:51.135Z,18.45
2019-02-28T12:31:28.958Z,18.44
2019-02-28T12:34:09.318Z,17.97
2019-02-28T12:36:46.377Z,18.81
2019-02-28T12:39:25.833Z,18.54
2019-02-28T12:41:56.529Z,18.29
2019-02-28T12:44:27.803Z,18.57
2019-02-28T12:46:57.200Z,18.52
2019-02-28T12:49:27.668Z,18.67
2019-02-28T12:51:57.179Z,18.27
2019-02-28T12:54:26.526Z,18.53
2019-02-28T12:56:56.157Z,18.27
2019-02-28T12:59:25.475Z,18.38
2019-02-28T13:01:54.859Z,18.32
2019-02-28T13:04:24.228Z,18.67
2019-02-28T13:06:55.579Z,18.47
2019-02-28T13:09:44.478Z,18.47
2019-02-28T13:12:13.990Z,18.43
2019-02-28T13:14:43.698Z,19.33
2019-02-28T13:17:13.014Z,18.84
2019-02-28T13:19:42.319Z,17.93
2019-02-28T13:22:11.727Z,17.81
2019-02-28T13:24:42.503Z,17.38
2019-02-28T13:27:12.445Z,16.85
2019-02-28T13:29:41.739Z,17.00
2019-02-28T13:32:11.260Z,17.01
2019-02-28T13:34:40.560Z,16.76
2019-02-28T13:37:09.879Z,16.24
2019-02-28T13:39:39.164Z,15.40
2019-02-28T13:42:08.663Z,15.23
2019-02-28T13:44:38.139Z,14.80
2019-02-28T13:47:09.819Z,14.52
2019-02-28T13:49:38.623Z,14.63
2019-02-28T13:52:08.177Z,14.24
2019-02-28T13:54:38.137Z,14.11
2019-02-28T13:57:10.008Z,13.96
2019-02-28T13:59:39.895Z,13.97
2019-02-28T14:02:10.282Z,13.92
2019-02-28T14:04:39.760Z,13.65
2019-02-28T14:07:09.056Z,13.32
2019-02-28T14:09:38.650Z,13.31
2019-02-28T14:12:08.236Z,13.70
2019-02-28T14:14:38.994Z,13.88
2019-02-28T14:17:08.881Z,13.93
2019-02-28T14:19:38.198Z,13.63
2019-02-28T14:22:08.663Z,13.18
2019-02-28T14:24:39.240Z,12.98
2019-02-28T14:27:08.962Z,12.93
2019-02-28T14:29:38.464Z,12.83
2019-02-28T14:32:08.247Z,12.81
2019-02-28T14:34:37.821Z,12.71
2019-02-28T14:37:07.112Z,12.75
2019-02-28T14:52:32.212Z,13.54
2019-02-28T14:55:01.661Z,13.73
2019-02-28T14:57:30.974Z,13.76
2019-02-28T15:00:06.211Z,13.57
2019-02-28T15:02:31.784Z,13.53
2019-02-28T15:05:01.316Z,13.43
2019-02-28T15:07:30.634Z,13.40
2019-02-28T15:10:01.679Z,13.44
2019-02-28T15:12:31.343Z,13.42
2019-02-28T15:15:00.654Z,13.38
2019-02-28T15:17:30.025Z,13.40
2019-02-28T15:19:59.360Z,13.44
2019-02-28T15:22:28.742Z,13.39
2019-02-28T15:24:58.031Z,13.49
2019-02-28T15:27:27.362Z,13.54
2019-02-28T15:29:58.903Z,13.60
2019-02-28T15:32:27.672Z,13.60
2019-02-28T15:34:56.996Z,13.60
2019-02-28T15:37:26.326Z,13.46
2019-02-28T15:39:55.713Z,13.50
2019-02-28T15:42:25.007Z,13.52
2019-02-28T15:44:54.346Z,13.54
2019-02-28T15:47:24.086Z,13.52
2019-02-28T15:49:53.515Z,13.39
2019-02-28T15:52:22.847Z,13.42
2019-02-28T15:54:52.391Z,13.33
2019-02-28T15:57:21.712Z,13.04
2019-02-28T15:59:51.370Z,13.17
2019-02-28T16:02:21.544Z,13.15
2019-02-28T16:04:50.952Z,12.90
2019-02-28T16:07:21.777Z,13.07
2019-02-28T16:09:54.105Z,12.97
2019-02-28T16:12:22.428Z,12.98
2019-02-28T16:14:51.821Z,12.90
2019-02-28T16:17:21.288Z,12.75
2019-02-28T16:19:53.220Z,12.97
2019-02-28T16:22:21.683Z,13.14
2019-02-28T16:24:51.098Z,13.02
2019-02-28T16:27:20.634Z,12.90
2019-02-28T16:29:52.361Z,12.88
2019-02-28T16:32:21.712Z,12.73
2019-02-28T16:34:51.217Z,12.65
2019-02-28T16:37:20.681Z,12.63
2019-02-28T16:39:50.369Z,12.60
2019-02-28T16:42:19.650Z,12.68
2019-02-28T16:44:48.961Z,12.60
2019-02-28T16:47:18.246Z,12.59
2019-02-28T16:49:48.034Z,12.64
2019-02-28T16:52:17.503Z,12.59
2019-02-28T16:54:47.102Z,12.61
2019-02-28T16:57:16.426Z,12.57
2019-02-28T16:59:45.803Z,12.66
2019-02-28T17:02:15.526Z,12.59
2019-02-28T17:04:44.836Z,12.65
2019-02-28T17:07:14.232Z,12.52
2019-02-28T17:09:43.667Z,12.60
2019-02-28T17:12:17.578Z,12.68
2019-02-28T17:14:48.286Z,12.62
2019-02-28T17:17:19.752Z,12.70
2019-02-28T17:19:49.285Z,12.65
2019-02-28T17:22:18.649Z,12.69
2019-02-28T17:24:48.002Z,12.55
2019-02-28T17:27:21.908Z,12.60
2019-02-28T17:29:53.623Z,12.69
2019-02-28T17:32:23.172Z,12.60
2019-02-28T17:34:52.695Z,12.60
2019-02-28T17:37:26.038Z,12.73
2019-02-28T17:39:53.011Z,12.63
2019-02-28T17:42:22.710Z,12.71
2019-02-28T17:45:02.132Z,12.75
2019-02-28T17:47:57.054Z,12.63
2019-02-28T17:50:39.360Z,12.64
2019-02-28T17:53:36.221Z,12.71
2019-02-28T17:56:37.537Z,12.73
2019-02-28T17:59:44.811Z,12.60
2019-02-28T18:02:31.982Z,12.66
2019-02-28T18:05:30.031Z,12.73
2019-02-28T18:08:02.610Z,12.78
2019-02-28T18:10:59.171Z,12.81
2019-02-28T18:13:30.424Z,12.78
2019-02-28T18:16:09.099Z,12.71
2019-02-28T18:18:44.470Z,12.55
2019-02-28T18:21:17.327Z,12.67
2019-02-28T18:23:56.011Z,12.63
2019-02-28T18:26:44.827Z,12.66
2019-02-28T18:29:19.916Z,12.76
2019-02-28T18:31:49.386Z,12.81
2019-02-28T18:34:20.623Z,12.55
2019-02-28T18:36:50.016Z,12.50
2019-02-28T18:39:19.539Z,12.59
2019-02-28T18:41:50.819Z,12.56
2019-02-28T18:44:20.248Z,12.55
2019-02-28T18:46:49.576Z,12.60
2019-02-28T18:49:18.919Z,12.68
2019-02-28T18:51:48.299Z,12.72
2019-02-28T18:54:17.688Z,12.63
2019-02-28T18:56:47.094Z,12.66
2019-02-28T18:59:16.792Z,12.46
2019-02-28T19:01:46.223Z,12.49
2019-02-28T19:04:15.580Z,12.63
2019-02-28T19:06:44.903Z,12.60
2019-02-28T19:09:24.733Z,12.66
2019-02-28T19:11:54.456Z,12.64
2019-02-28T19:14:23.898Z,12.65
2019-02-28T19:16:53.210Z,12.61
2019-02-28T19:19:22.648Z,12.53
2019-02-28T19:21:51.949Z,12.60
2019-02-28T19:24:21.240Z,12.54
2019-02-28T19:26:50.543Z,12.29
2019-02-28T19:29:20.111Z,12.11
2019-02-28T19:31:49.575Z,11.98
2019-02-28T19:34:19.497Z,12.06
2019-02-28T19:36:48.855Z,12.09
2019-02-28T19:39:18.244Z,11.93
2019-02-28T19:41:47.785Z,12.07
2019-02-28T19:44:17.421Z,12.15
2019-02-28T19:46:46.736Z,11.96
2019-02-28T19:49:16.432Z,11.56
2019-02-28T19:51:45.756Z,11.74
2019-02-28T19:54:15.335Z,11.85
2019-02-28T19:56:44.625Z,11.95
2019-02-28T19:59:14.765Z,11.87
2019-02-28T20:01:45.404Z,11.46
2019-02-28T20:04:15.634Z,11.38
2019-02-28T20:06:45.307Z,11.31
2019-02-28T20:09:14.679Z,11.19
2019-02-28T20:11:44.142Z,11.27
2019-02-28T20:14:13.810Z,11.39
2019-02-28T20:16:43.199Z,11.40
2019-02-28T20:19:13.037Z,11.61
2019-02-28T20:21:42.332Z,11.69
2019-02-28T20:24:12.509Z,11.67
2019-02-28T20:26:41.885Z,11.31
2019-02-28T20:29:11.303Z,11.28
2019-02-28T20:31:40.613Z,11.44
2019-02-28T20:34:10.353Z,11.42
2019-02-28T20:36:40.158Z,11.52
2019-02-28T20:39:12.339Z,11.61
2019-02-28T20:41:41.650Z,11.75
2019-02-28T20:44:11.192Z,11.66
2019-02-28T20:46:40.609Z,11.48
2019-02-28T20:49:09.928Z,11.48
2019-02-28T20:51:39.232Z,11.45
2019-02-28T20:54:08.569Z,11.57
2019-02-28T20:56:37.857Z,11.61
2019-02-28T20:59:07.201Z,11.51
2019-02-28T21:01:36.548Z,11.52
2019-02-28T21:04:06.185Z,11.43
2019-02-28T21:06:35.611Z,11.44
2019-02-28T21:09:06.839Z,11.40
2019-02-28T21:11:36.342Z,11.44
2019-02-28T21:14:05.807Z,11.47
2019-02-28T21:16:35.366Z,11.76
2019-02-28T21:19:04.930Z,11.66
2019-02-28T21:21:34.251Z,11.81
2019-02-28T21:24:03.805Z,11.83
2019-02-28T21:26:33.269Z,11.78
2019-02-28T21:29:02.756Z,11.94
2019-02-28T21:31:32.068Z,11.82
2019-02-28T21:34:01.382Z,11.57
2019-02-28T21:36:30.769Z,11.64
2019-02-28T21:39:00.100Z,11.56
2019-02-28T21:41:29.419Z,11.75
2019-02-28T21:43:58.745Z,11.68
2019-02-28T21:46:28.088Z,11.60
2019-02-28T21:48:57.388Z,11.61
2019-02-28T21:51:26.773Z,11.46
2019-02-28T21:53:56.070Z,11.56
2019-02-28T21:56:25.408Z,11.21
2019-02-28T21:58:54.718Z,11.24
2019-02-28T22:01:24.147Z,11.23
2019-02-28T22:03:53.449Z,11.18
2019-02-28T22:06:23.254Z,11.13
2019-02-28T22:08:52.936Z,11.04
2019-02-28T22:11:22.436Z,10.96
2019-02-28T22:13:51.742Z,11.00
2019-02-28T22:16:21.267Z,11.36
2019-02-28T22:18:50.652Z,11.20
2019-02-28T22:21:19.929Z,10.99
2019-02-28T22:23:49.276Z,11.16
2019-02-28T22:26:18.661Z,11.28
2019-02-28T22:28:47.977Z,11.29
2019-02-28T22:31:30.713Z,11.37
2019-02-28T22:34:01.714Z,11.24
2019-02-28T22:36:32.653Z,11.19
2019-02-28T22:39:02.002Z,11.23
2019-02-28T22:41:31.284Z,11.26
2019-02-28T22:44:00.605Z,11.18
2019-02-28T22:46:29.893Z,11.12
2019-02-28T22:48:59.205Z,11.11
2019-02-28T22:51:28.686Z,11.15
2019-02-28T22:53:58.007Z,11.14
2019-02-28T22:56:27.414Z,11.25
2019-02-28T22:58:56.743Z,11.08
2019-02-28T23:01:27.024Z,11.12
2019-02-28T23:03:56.341Z,11.15
2019-02-28T23:06:25.896Z,11.16
2019-02-28T23:08:55.281Z,11.09
2019-02-28T23:11:25.105Z,11.05
2019-02-28T23:13:54.421Z,11.02
2019-02-28T23:16:23.835Z,10.85
2019-02-28T23:18:53.302Z,10.80
2019-02-28T23:21:22.647Z,10.91
2019-02-28T23:23:51.923Z,11.00
2019-02-28T23:26:24.533Z,10.91
2019-02-28T23:28:59.676Z,11.05
2019-02-28T23:31:53.176Z,11.10
2019-02-28T23:34:31.809Z,11.04
2019-02-28T23:37:01.172Z,11.07
2019-02-28T23:39:30.451Z,10.97
2019-02-28T23:41:59.769Z,11.08
2019-02-28T23:44:29.639Z,11.12
2019-02-28T23:46:59.044Z,11.16
2019-02-28T23:49:28.752Z,11.08
2019-02-28T23:51:58.051Z,11.01
2019-02-28T23:54:27.858Z,11.08
2019-02-28T23:56:57.188Z,11.11
2019-02-28T23:59:26.540Z,11.16
